createdAt,value
2023-01-11T00:01:59.129Z,-28.4
2023-01-11T00:04:00.302Z,-28.5
2023-01-11T00:06:01.630Z,-28.2
2023-01-11T00:10:04.997Z,-28.5
2023-01-11T00:12:06.925Z,-28.5
2023-01-11T00:14:08.327Z,-28.4
2023-01-11T00:16:09.419Z,-28.5
2023-01-11T00:18:11.131Z,-28.3
2023-01-11T00:20:12.356Z,-28.3
2023-01-11T00:22:14.318Z,-28.3
2023-01-11T00:24:16.061Z,-28.6
2023-01-11T00:26:17.348Z,-28.6
2023-01-11T00:28:19.158Z,-28.5
2023-01-11T00:30:20.779Z,-28.4
2023-01-11T00:32:22.651Z,-28.3
2023-01-11T00:34:24.610Z,-28.2
2023-01-11T00:38:26.702Z,-28.4
2023-01-11T00:40:28.689Z,-28.2
2023-01-11T00:42:29.574Z,-28.5
2023-01-11T00:44:31.268Z,-28.3
2023-01-11T00:46:32.976Z,-28.2
2023-01-11T00:48:34.478Z,-28.4
2023-01-11T00:52:37.411Z,-28.2
2023-01-11T00:54:38.809Z,-28.3
2023-01-11T00:56:39.892Z,-28.3
2023-01-11T00:58:41.571Z,-28.4
2023-01-11T01:00:42.775Z,-28.3
2023-01-11T01:02:44.423Z,-28.6
2023-01-11T01:04:46.032Z,-28.5
2023-01-11T01:06:47.452Z,-28.3
2023-01-11T01:08:49.281Z,-28.2
2023-01-11T01:10:51.220Z,-28.2
2023-01-11T01:14:54.106Z,-28.3
2023-01-11T01:16:55.395Z,-28.3
2023-01-11T01:18:56.827Z,-28.2
2023-01-11T01:20:57.840Z,-28.4
2023-01-11T01:22:58.853Z,-28.2
2023-01-11T01:24:59.867Z,-28.5
2023-01-11T01:27:01.157Z,-28.4
2023-01-11T01:29:02.564Z,-28.2
2023-01-11T01:31:03.868Z,-28.4
2023-01-11T01:37:07.890Z,-28.5
2023-01-11T01:39:09.076Z,-28.5
2023-01-11T01:41:10.946Z,-28.6
2023-01-11T01:43:12.679Z,-28.5
2023-01-11T01:45:14.229Z,-28.2
2023-01-11T01:47:15.487Z,-28.3
2023-01-11T01:51:19.019Z,-28.3
2023-01-11T01:53:20.748Z,-28.4
2023-01-11T01:55:22.415Z,-28.4
2023-01-11T01:57:23.737Z,-28.2
2023-01-11T02:03:37.181Z,-28.2
2023-01-11T02:05:29.672Z,-28.5
2023-01-11T02:07:31.557Z,-28.4
2023-01-11T02:09:32.655Z,-28
2023-01-11T02:11:34.469Z,-28.2
2023-01-11T02:13:36.333Z,-28.4
2023-01-11T02:15:37.786Z,-28.5
2023-01-11T02:17:39.403Z,-28.5
2023-01-11T02:19:40.754Z,-28.2
2023-01-11T02:21:42.178Z,-28.3
2023-01-11T02:23:43.572Z,-28.4
2023-01-11T02:25:45.373Z,-28.4
2023-01-11T02:27:46.984Z,-28.4
2023-01-11T02:29:48.456Z,-28.4
2023-01-11T02:31:49.421Z,-28.3
2023-01-11T02:33:50.571Z,-28.3
2023-01-11T02:35:51.616Z,-28.3
2023-01-11T02:37:52.797Z,-28.4
2023-01-11T02:39:54.684Z,-28.4
2023-01-11T02:41:55.896Z,-28.2
2023-01-11T02:43:57.467Z,-28.2
2023-01-11T02:45:59.005Z,-28.3
2023-01-11T02:50:02.088Z,-28.5
2023-01-11T02:52:03.707Z,-28.2
2023-01-11T02:54:05.603Z,-28.3
2023-01-11T02:56:07.252Z,-28.2
2023-01-11T03:02:11.553Z,-28.3
2023-01-11T03:04:13.050Z,-28.3
2023-01-11T03:06:14.148Z,-28.4
2023-01-11T03:08:15.695Z,-28.2
2023-01-11T03:10:16.898Z,-28.3
2023-01-11T03:12:18.806Z,-28.4
2023-01-11T03:14:20.108Z,-28.1
2023-01-11T03:16:21.707Z,-28.3
2023-01-11T03:18:22.851Z,-28.4
2023-01-11T03:20:23.903Z,-28.2
2023-01-11T03:22:24.855Z,-28.5
2023-01-11T03:24:25.891Z,-28.3
2023-01-11T03:26:29.319Z,-28.5
2023-01-11T03:28:29.204Z,-28.3
2023-01-11T03:30:30.558Z,-28.3
2023-01-11T03:32:32.318Z,-28.6
2023-01-11T03:34:34.019Z,-28.4
2023-01-11T03:36:35.016Z,-28.3
2023-01-11T03:38:36.152Z,-28.4
2023-01-11T03:40:37.605Z,-28.2
2023-01-11T03:44:40.871Z,-28.3
2023-01-11T03:46:42.680Z,-28.4
2023-01-11T03:48:44.059Z,-28.4
2023-01-11T03:50:46.008Z,-28.3
2023-01-11T03:52:47.517Z,-28.1
2023-01-11T03:54:49.218Z,-28.2
2023-01-11T03:58:51.250Z,-28
2023-01-11T04:00:52.708Z,-28.4
2023-01-11T04:02:54.520Z,-28.3
2023-01-11T04:04:55.878Z,-28.4
2023-01-11T04:06:57.454Z,-28.4
2023-01-11T04:08:59.124Z,-28.4
2023-01-11T04:11:00.103Z,-28.4
2023-01-11T04:13:01.829Z,-28.2
2023-01-11T04:15:03.397Z,-28.4
2023-01-11T04:17:05.336Z,-28.5
2023-01-11T04:21:09.185Z,-28.2
2023-01-11T04:23:10.316Z,-28.2
2023-01-11T04:25:11.322Z,-28.4
2023-01-11T04:27:12.704Z,-28.3
2023-01-11T04:29:14.621Z,-28.5
2023-01-11T04:31:15.640Z,-28.4
2023-01-11T04:33:17.132Z,-28.6
2023-01-11T04:35:18.159Z,-28.4
2023-01-11T04:37:20.058Z,-28.5
2023-01-11T04:43:24.152Z,-28.3
2023-01-11T04:48:11.741Z,-28.4
2023-01-11T04:52:14.837Z,-28.3
2023-01-11T04:54:16.612Z,-28.1
2023-01-11T04:58:19.731Z,-28.2
2023-01-11T05:02:22.232Z,-28.4
2023-01-11T05:04:24.085Z,-28.5
2023-01-11T05:08:27.048Z,-28.4
2023-01-11T05:10:28.366Z,-28.2
2023-01-11T05:12:29.301Z,-28.2
2023-01-11T05:14:31.045Z,-28.4
2023-01-11T05:18:33.599Z,-28.5
2023-01-11T05:20:35.317Z,-28.2
2023-01-11T05:22:36.349Z,-28.5
2023-01-11T05:24:37.433Z,-28.3
2023-01-11T05:28:40.159Z,-28.3
2023-01-11T05:30:41.907Z,-28.2
2023-01-11T05:32:43.406Z,-28.5
2023-01-11T05:34:44.991Z,-28.5
2023-01-11T05:36:46.128Z,-28.2
2023-01-11T05:38:48.049Z,-28.4
2023-01-11T05:40:49.488Z,-28.3
2023-01-11T05:42:51.348Z,-28.3
2023-01-11T05:46:53.697Z,-28.3
2023-01-11T05:50:56.241Z,-28.2
2023-01-11T05:52:58.062Z,-28.3
2023-01-11T05:54:59.804Z,-28.2
2023-01-11T05:57:00.751Z,-28.4
2023-01-11T06:03:04.655Z,-28.5
2023-01-11T06:05:06.086Z,-28.3
2023-01-11T06:07:07.082Z,-28.5
2023-01-11T06:09:08.110Z,-28.4
2023-01-11T06:11:09.554Z,-28.2
2023-01-11T06:13:11.092Z,-28.3
2023-01-11T06:15:12.174Z,-28.2
2023-01-11T06:17:13.288Z,-28.4
2023-01-11T06:19:15.176Z,-28.5
2023-01-11T06:21:16.393Z,-28.3
2023-01-11T06:23:17.595Z,-28.2
2023-01-11T06:25:18.849Z,-28.2
2023-01-11T06:27:20.311Z,-28.4
2023-01-11T06:29:22.189Z,-28.2
2023-01-11T06:31:23.340Z,-28.3
2023-01-11T06:33:24.533Z,-28.3
2023-01-11T06:35:25.841Z,-28.4
2023-01-11T06:39:28.581Z,-28.5
2023-01-11T06:41:29.707Z,-28.6
2023-01-11T06:43:31.055Z,-28.2
2023-01-11T06:45:32.090Z,-28.2
2023-01-11T06:47:33.382Z,-28.5
2023-01-11T06:49:34.839Z,-28.4
2023-01-11T06:51:36.365Z,-28.2
2023-01-11T06:53:37.427Z,-28.2
2023-01-11T06:55:39.142Z,-28.3
2023-01-11T07:01:43.724Z,-28.4
2023-01-11T07:03:45.620Z,-28.2
2023-01-11T07:05:47.389Z,-28
2023-01-11T07:07:49.385Z,-28.4
2023-01-11T07:09:50.775Z,-28.4
2023-01-11T07:11:52.390Z,-28.1
2023-01-11T07:15:55.175Z,-28.6
2023-01-11T07:17:56.948Z,-28.4
2023-01-11T07:19:58.271Z,-28.5
2023-01-11T07:21:59.699Z,-28.3
2023-01-11T07:26:02.915Z,-28.5
2023-01-11T07:28:04.347Z,-28.5
2023-01-11T07:30:05.313Z,-28.3
2023-01-11T07:32:06.590Z,-28.1
2023-01-11T07:34:07.972Z,-28.4
2023-01-11T07:36:09.165Z,-28.6
2023-01-11T07:38:10.271Z,-28.5
2023-01-11T07:42:15.276Z,-28.4
2023-01-11T07:44:15.689Z,-28.4
2023-01-11T07:46:17.469Z,-28.3
2023-01-11T07:48:18.270Z,-27.9
2023-01-11T07:50:20.188Z,-28.5
2023-01-11T07:52:21.959Z,-28.7
2023-01-11T07:54:23.650Z,-28.5
2023-01-11T07:56:24.772Z,-28.6
2023-01-11T07:58:26.410Z,-28.6
2023-01-11T08:00:27.820Z,-28.3
2023-01-11T08:02:29.082Z,-28.3
2023-01-11T08:04:30.000Z,-28.2
2023-01-11T08:06:31.532Z,-28.3
2023-01-11T08:08:33.214Z,-28.5
2023-01-11T08:10:34.754Z,-28.5
2023-01-11T08:14:38.275Z,-28.3
2023-01-11T08:16:39.861Z,-28.5
2023-01-11T08:18:41.699Z,-28.3
2023-01-11T08:20:43.452Z,-28.5
2023-01-11T08:24:46.360Z,-28.4
2023-01-11T08:26:48.085Z,-28.2
2023-01-11T08:28:49.571Z,-28
2023-01-11T08:30:51.307Z,-26.1
2023-01-11T08:32:52.754Z,-23.9
2023-01-11T08:34:54.112Z,-25.3
2023-01-11T08:36:55.911Z,-27.2
2023-01-11T08:38:56.848Z,-28.2
2023-01-11T08:40:58.408Z,-28.2
2023-01-11T08:42:59.979Z,-28.3
2023-01-11T08:45:01.718Z,-28.2
2023-01-11T08:47:02.902Z,-28.1
2023-01-11T08:49:04.391Z,-28.6
2023-01-11T08:51:05.568Z,-28.5
2023-01-11T08:53:07.129Z,-28.1
2023-01-11T08:55:08.336Z,-28.3
2023-01-11T08:57:10.052Z,-28.4
2023-01-11T08:59:11.779Z,-28.1
2023-01-11T09:01:13.665Z,-28.5
2023-01-11T09:03:15.435Z,-28.4
2023-01-11T09:09:19.406Z,-27.7
2023-01-11T09:11:20.393Z,-27.5
2023-01-11T09:13:22.234Z,-25.5
2023-01-11T09:15:23.652Z,-24.5
2023-01-11T09:17:24.753Z,-24.4
2023-01-11T09:19:26.548Z,-24.1
2023-01-11T09:23:29.268Z,-26.8
2023-01-11T09:25:30.891Z,-28
2023-01-11T09:27:32.554Z,-27.9
2023-01-11T09:29:36.943Z,-28.6
2023-01-11T09:31:36.081Z,-28.5
2023-01-11T09:33:37.737Z,-28.2
2023-01-11T09:35:39.232Z,-28.2
2023-01-11T09:37:40.705Z,-28.4
2023-01-11T09:39:41.916Z,-28.6
2023-01-11T09:41:43.044Z,-28.2
2023-01-11T09:43:44.685Z,-28.6
2023-01-11T09:45:46.397Z,-28
2023-01-11T09:47:47.847Z,-28.5
2023-01-11T09:49:49.021Z,-28.4
2023-01-11T09:51:50.797Z,-28.4
2023-01-11T09:53:52.496Z,-28.4
2023-01-11T09:55:53.927Z,-28
2023-01-11T09:57:55.002Z,-27
2023-01-11T09:59:56.302Z,-25.8
2023-01-11T10:01:57.369Z,-25.5
2023-01-11T10:18:20.458Z,-28
2023-01-11T10:18:24.309Z,-24
2023-01-11T10:18:34.698Z,-22.8
2023-01-11T10:22:12.742Z,-27.1
2023-01-11T10:24:14.196Z,-28.4
2023-01-11T10:26:15.744Z,-28.5
2023-01-11T10:28:16.805Z,-28.3
2023-01-11T10:32:20.276Z,-28.4
2023-01-11T10:34:21.205Z,-28.2
2023-01-11T10:38:23.992Z,-28.2
2023-01-11T10:40:25.800Z,-28.3
2023-01-11T10:42:27.436Z,-28.4
2023-01-11T10:44:28.728Z,-28.2
2023-01-11T10:50:33.446Z,-28.5
2023-01-11T10:52:34.332Z,-28.4
2023-01-11T10:54:35.364Z,-28.4
2023-01-11T10:58:38.440Z,-28
2023-01-11T11:00:40.095Z,-21.6
2023-01-11T11:04:43.132Z,-17.79
2023-01-11T11:06:44.941Z,-20.29
2023-01-11T11:08:46.049Z,-24
2023-01-11T11:10:47.188Z,-25.2
2023-01-11T11:12:48.740Z,-23.4
2023-01-11T11:16:52.292Z,-23.3
2023-01-11T11:18:53.313Z,-27.3
2023-01-11T11:20:54.533Z,-27
2023-01-11T11:22:55.748Z,-26
2023-01-11T11:24:57.676Z,-23.8
2023-01-11T11:26:59.499Z,-24.7
2023-01-11T11:29:00.955Z,-26.8
2023-01-11T11:29:52.808Z,-28.2
2023-01-11T11:31:46.494Z,-26.9
2023-01-11T11:33:48.365Z,-28.3
2023-01-11T11:35:49.544Z,-28.4
2023-01-11T11:37:50.722Z,-28.2
2023-01-11T11:39:52.513Z,-28.4
2023-01-11T11:41:54.412Z,-28.4
2023-01-11T11:43:56.171Z,-28.5
2023-01-11T11:45:58.003Z,-28.5
2023-01-11T11:47:59.679Z,-28.3
2023-01-11T11:50:01.328Z,-28.4
2023-01-11T11:52:02.367Z,-28.4
2023-01-11T11:54:04.030Z,-28.4
2023-01-11T11:58:07.290Z,-28.4
2023-01-11T12:00:08.303Z,-28.5
2023-01-11T12:02:09.822Z,-28.3
2023-01-11T12:04:11.709Z,-16.5
2023-01-11T12:10:15.621Z,-13.9
2023-01-11T12:12:16.792Z,-16.4
2023-01-11T12:14:18.620Z,-13.3
2023-01-11T12:16:19.676Z,-19.2
2023-01-11T12:18:21.267Z,-22.6
2023-01-11T12:20:22.507Z,-19.7
2023-01-11T12:22:24.008Z,-20.8
2023-01-11T12:24:26.678Z,-23.6
2023-01-11T12:26:27.150Z,-27.4
2023-01-11T12:28:28.388Z,-27.9
2023-01-11T12:30:29.598Z,-28.4
2023-01-11T12:32:31.086Z,-27.9
2023-01-11T12:34:32.028Z,-28.4
2023-01-11T12:36:33.531Z,-28.4
2023-01-11T12:40:36.336Z,-28
2023-01-11T12:42:38.176Z,-28.4
2023-01-11T12:44:39.506Z,-28.6
2023-01-11T12:46:40.938Z,-28.5
2023-01-11T12:48:42.465Z,-28.5
2023-01-11T12:52:45.256Z,-20.6
2023-01-11T12:54:46.741Z,-26
2023-01-11T12:56:48.118Z,-26.6
2023-01-11T12:58:49.087Z,-26.3
2023-01-11T13:00:50.389Z,-28.5
2023-01-11T13:02:52.362Z,-28.2
2023-01-11T13:06:55.908Z,-28
2023-01-11T13:08:57.646Z,-25.1
2023-01-11T13:10:58.902Z,-19.9
2023-01-11T13:13:00.667Z,-16.6
2023-01-11T13:15:02.376Z,-18.29
2023-01-11T13:17:03.465Z,-23.3
2023-01-11T13:19:04.989Z,-26.8
2023-01-11T13:21:07.015Z,-24.1
2023-01-11T13:23:08.139Z,-8
2023-01-11T13:25:09.345Z,10.2
2023-01-11T13:29:11.927Z,10.2
2023-01-11T13:31:13.343Z,-0.5
2023-01-11T13:33:15.144Z,-8.8
2023-01-11T13:35:16.211Z,-15.1
2023-01-11T13:37:17.838Z,-22
2023-01-11T13:39:18.860Z,-27.6
2023-01-11T13:41:20.557Z,-28.5
2023-01-11T13:43:22.420Z,-28.3
2023-01-11T13:45:24.330Z,-28.3
2023-01-11T13:51:29.695Z,-28.3
2023-01-11T13:53:30.791Z,-28.4
2023-01-11T13:55:31.813Z,-27.7
2023-01-11T13:57:33.093Z,-24.4
2023-01-11T13:59:34.040Z,-24
2023-01-11T14:01:35.040Z,-26.7
2023-01-11T14:03:36.401Z,-27.2
2023-01-11T14:05:37.696Z,-23.9
2023-01-11T14:07:39.080Z,-26.2
2023-01-11T14:09:40.930Z,-28
2023-01-11T14:11:41.852Z,-28.4
2023-01-11T14:13:43.027Z,-28.2
2023-01-11T14:17:45.963Z,-28.4
2023-01-11T14:19:47.717Z,-28.3
2023-01-11T14:21:49.427Z,-28.3
2023-01-11T14:23:50.831Z,-28.3
2023-01-11T14:25:52.046Z,-28.4
2023-01-11T14:27:53.882Z,-28.3
2023-01-11T14:29:55.316Z,-28.3
2023-01-11T14:31:56.367Z,-28.3
2023-01-11T14:33:58.138Z,-28.3
2023-01-11T14:35:59.248Z,-28.2
2023-01-11T14:38:00.782Z,-28.7
2023-01-11T14:40:02.299Z,-28.5
2023-01-11T14:42:04.176Z,-28.3
2023-01-11T14:44:05.334Z,-28.4
2023-01-11T14:46:07.170Z,-28.5
2023-01-11T14:48:08.412Z,-28.3
2023-01-11T14:50:09.742Z,-28.5
2023-01-11T14:52:11.578Z,-28.3
2023-01-11T14:54:12.616Z,-28.4
2023-01-11T14:56:14.027Z,-28.3
2023-01-11T14:58:15.656Z,-28.3
2023-01-11T15:00:17.457Z,-28.2
2023-01-11T15:04:20.315Z,-28.4
2023-01-11T15:06:21.818Z,-28.4
2023-01-11T15:08:23.383Z,-28.2
2023-01-11T15:10:25.102Z,-28.2
2023-01-11T15:14:28.159Z,-28.5
2023-01-11T15:16:29.851Z,-28.3
2023-01-11T15:18:30.753Z,-28.5
2023-01-11T15:20:32.427Z,-28.2
2023-01-11T15:22:34.335Z,-28.5
2023-01-11T15:24:35.653Z,-28.4
2023-01-11T15:26:36.763Z,-28.2
2023-01-11T15:28:38.436Z,-28.2
2023-01-11T15:30:39.867Z,-28.4
2023-01-11T15:32:41.749Z,-28.4
2023-01-11T15:34:42.998Z,-28.4
2023-01-11T15:36:44.881Z,-28.6
2023-01-11T15:38:46.078Z,-28.3
2023-01-11T15:40:47.712Z,-28.4
2023-01-11T15:42:49.212Z,-28.4
2023-01-11T15:46:52.078Z,-28.1
2023-01-11T15:48:52.992Z,-28.3
2023-01-11T15:50:54.773Z,-28.3
2023-01-11T15:52:56.353Z,-28.4
2023-01-11T15:56:58.508Z,-28.2
2023-01-11T15:59:00.037Z,-28.2
2023-01-11T16:01:01.940Z,-28.4
2023-01-11T16:03:03.054Z,-28.4
2023-01-11T16:05:04.472Z,-28.4
2023-01-11T16:07:06.252Z,-28.6
2023-01-11T16:09:07.753Z,-28.6
2023-01-11T16:11:08.875Z,-28.3
2023-01-11T16:13:10.422Z,-28.3
2023-01-11T16:15:12.042Z,-28.3
2023-01-11T16:19:15.075Z,-28.3
2023-01-11T16:21:16.441Z,-28.5
2023-01-11T16:23:18.065Z,-28.4
2023-01-11T16:25:19.496Z,-28
2023-01-11T16:31:23.355Z,-28.4
2023-01-11T16:33:24.629Z,-28
2023-01-11T16:35:26.121Z,-28.5
2023-01-11T16:37:27.379Z,-28.3
2023-01-11T16:39:29.079Z,-28.3
2023-01-11T16:41:30.905Z,-28.5
2023-01-11T16:43:32.722Z,-28.4
2023-01-11T16:45:34.487Z,-28.4
2023-01-11T16:47:35.956Z,-28.4
2023-01-11T16:49:37.754Z,-28.5
2023-01-11T16:51:39.329Z,-28.2
2023-01-11T16:53:41.223Z,-28.4
2023-01-11T16:55:42.639Z,-28.3
2023-01-11T16:57:44.044Z,-28.4
2023-01-11T17:01:46.748Z,-28.5
2023-01-11T17:03:47.754Z,-28.2
2023-01-11T17:05:49.013Z,-28.4
2023-01-11T17:07:50.679Z,-28.2
2023-01-11T17:09:52.229Z,-28.5
2023-01-11T17:13:55.338Z,-28.4
2023-01-11T17:15:56.362Z,-28.3
2023-01-11T17:17:57.779Z,-28.7
2023-01-11T17:19:59.576Z,-28.3
2023-01-11T17:22:01.118Z,-28.6
2023-01-11T17:24:03.043Z,-28
2023-01-11T17:26:05.058Z,-28.2
2023-01-11T17:28:05.848Z,-28.6
2023-01-11T17:30:07.310Z,-28.4
2023-01-11T17:32:08.826Z,-28.3
2023-01-11T17:34:10.367Z,-28.3
2023-01-11T17:36:11.990Z,-28.4
2023-01-11T17:38:13.752Z,-28.4
2023-01-11T17:40:14.912Z,-28.5
2023-01-11T17:42:16.064Z,-28.5
2023-01-11T17:44:17.272Z,-28.3
2023-01-11T17:46:18.899Z,-28.2
2023-01-11T17:50:22.009Z,-28.5
2023-01-11T17:52:22.983Z,-28.4
2023-01-11T17:54:24.223Z,-28.6
2023-01-11T17:56:25.616Z,-28.2
2023-01-11T17:58:27.090Z,-28.3
2023-01-11T18:00:28.820Z,-28.3
2023-01-11T18:02:29.857Z,-28.4
2023-01-11T18:04:31.179Z,-28.2
2023-01-11T18:06:32.756Z,-28.4
2023-01-11T18:12:38.414Z,-28.4
2023-01-11T18:14:39.680Z,-28.5
2023-01-11T18:17:24.841Z,-28.3
2023-01-11T18:19:26.262Z,-28.3
2023-01-11T18:21:27.783Z,-28.3
2023-01-11T18:23:29.292Z,-28.4
2023-01-11T18:25:30.613Z,-28.3
2023-01-11T18:27:32.143Z,-28.4
2023-01-11T18:31:35.799Z,-28.3
2023-01-11T18:33:37.568Z,-28.4
2023-01-11T18:37:39.741Z,-28.3
2023-01-11T18:39:41.020Z,-28.2
2023-01-11T18:41:44.675Z,-28.4
2023-01-11T18:43:43.764Z,-28.2
2023-01-11T18:45:45.103Z,-28.6
2023-01-11T18:47:46.241Z,-28.3
2023-01-11T18:49:47.323Z,-28.4
2023-01-11T18:51:49.067Z,-28.3
2023-01-11T18:53:50.123Z,-28.4
2023-01-11T18:55:51.196Z,-28.2
2023-01-11T18:57:52.512Z,-28.2
2023-01-11T18:59:53.942Z,-28.4
2023-01-11T19:02:04.621Z,-28.5
2023-01-11T19:03:56.522Z,-28.1
2023-01-11T19:05:57.826Z,-28.4
2023-01-11T19:07:59.398Z,-28.5
2023-01-11T19:10:00.913Z,-28.6
2023-01-11T19:12:02.575Z,-28
2023-01-11T19:14:04.363Z,-28.3
2023-01-11T19:16:05.404Z,-28.4
2023-01-11T19:20:08.101Z,-28.6
2023-01-11T19:22:09.247Z,-28.3
2023-01-11T19:24:10.360Z,-28
2023-01-11T19:26:11.917Z,-28.5
2023-01-11T19:32:16.726Z,-28.4
2023-01-11T19:34:17.704Z,-28.5
2023-01-11T19:36:18.782Z,-28
2023-01-11T19:38:20.380Z,-28.2
2023-01-11T19:40:22.209Z,-28.3
2023-01-11T19:42:23.190Z,-28.2
2023-01-11T19:44:24.699Z,-28.3
2023-01-11T19:46:31.788Z,-28.4
2023-01-11T19:48:28.251Z,-28.6
2023-01-11T19:50:29.544Z,-28.5
2023-01-11T19:52:30.645Z,-28.3
2023-01-11T19:54:32.479Z,-28.6
2023-01-11T19:56:34.391Z,-28.4
2023-01-11T19:58:35.786Z,-28.3
2023-01-11T20:00:37.321Z,-28.1
2023-01-11T20:02:38.428Z,-28.1
2023-01-11T20:04:40.229Z,-28.3
2023-01-11T20:06:41.243Z,-28.3
2023-01-11T20:08:42.560Z,-28.4
2023-01-11T20:10:43.787Z,-28.3
2023-01-11T20:12:45.501Z,-28.6
2023-01-11T20:14:47.077Z,-28.4
2023-01-11T20:16:48.386Z,-28.5
2023-01-11T20:18:49.814Z,-28.6
2023-01-11T20:20:50.896Z,-28.3
2023-01-11T20:22:51.888Z,-28.3
2023-01-11T20:24:53.366Z,-28.4
2023-01-11T20:30:57.341Z,-28.2
2023-01-11T20:32:58.333Z,-28.4
2023-01-11T20:35:00.166Z,-28.2
2023-01-11T20:37:02.181Z,-28.4
2023-01-11T20:39:03.527Z,-28.4
2023-01-11T20:41:04.751Z,-28.5
2023-01-11T20:45:07.635Z,-28.3
2023-01-11T20:47:08.899Z,-28.5
2023-01-11T20:49:09.952Z,-28.3
2023-01-11T20:51:11.564Z,-28.5
2023-01-11T20:55:14.882Z,-28.6
2023-01-11T20:57:16.568Z,-28.4
2023-01-11T20:59:17.740Z,-28.3
2023-01-11T21:01:19.712Z,-28.3
2023-01-11T21:03:21.377Z,-28.6
2023-01-11T21:05:23.109Z,-28.5
2023-01-11T21:07:24.661Z,-28.4
2023-01-11T21:11:27.477Z,-28.1
2023-01-11T21:13:28.588Z,-28.3
2023-01-11T21:17:31.397Z,-28.5
2023-01-11T21:21:33.567Z,-28.5
2023-01-11T21:23:34.787Z,-28.2
2023-01-11T21:25:36.125Z,-28.3
2023-01-11T21:27:37.326Z,-28.3
2023-01-11T21:29:38.710Z,-28.3
2023-01-11T21:31:39.858Z,-28.4
2023-01-11T21:33:40.720Z,-28.4
2023-01-11T21:35:41.694Z,-28.4
2023-01-11T21:37:43.520Z,-28.3
2023-01-11T21:39:45.104Z,-28.4
2023-01-11T21:43:48.381Z,-28.4
2023-01-11T21:45:50.048Z,-28.4
2023-01-11T21:47:51.447Z,-28.2
2023-01-11T21:49:53.282Z,-28.4
2023-01-11T21:55:58.272Z,-28.5
2023-01-11T21:57:59.494Z,-28.3
2023-01-11T22:00:01.365Z,-28.4
2023-01-11T22:02:02.343Z,-28.7
2023-01-11T22:04:03.686Z,-28.5
2023-01-11T22:06:05.027Z,-28.6
2023-01-11T22:08:06.120Z,-28.3
2023-01-11T22:10:07.774Z,-28.2
2023-01-11T22:12:18.249Z,-28.1
2023-01-11T22:14:10.390Z,-28.5
2023-01-11T22:16:11.879Z,-28.5
2023-01-11T22:18:13.099Z,-28.4
2023-01-11T22:20:14.340Z,-28.4
2023-01-11T22:22:15.815Z,-28.4
2023-01-11T22:24:17.251Z,-28.4
2023-01-11T22:26:18.485Z,-28.2
2023-01-11T22:28:20.435Z,-28.4
2023-01-11T22:30:21.721Z,-28.4
2023-01-11T22:32:23.497Z,-28.6
2023-01-11T22:34:24.998Z,-28.3
2023-01-11T22:36:26.116Z,-28.3
2023-01-11T22:38:27.303Z,-28.4
2023-01-11T22:42:30.305Z,-28.3
2023-01-11T22:44:31.875Z,-28.5
2023-01-11T22:46:33.083Z,-28.6
2023-01-11T22:48:34.363Z,-28.4
2023-01-11T22:54:38.402Z,-28.2
2023-01-11T22:56:40.289Z,-28.3
2023-01-11T22:58:41.452Z,-28.5
2023-01-11T23:00:42.914Z,-28.2
2023-01-11T23:02:44.809Z,-28.2
2023-01-11T23:04:46.612Z,-28.3
2023-01-11T23:08:49.459Z,-28.5
2023-01-11T23:10:50.617Z,-28.4
2023-01-11T23:12:51.954Z,-28.7
2023-01-11T23:14:53.048Z,-28.5
2023-01-11T23:20:57.325Z,-28.3
2023-01-11T23:22:58.319Z,-28.4
2023-01-11T23:24:59.729Z,-28.3
2023-01-11T23:27:00.861Z,-28.2
2023-01-11T23:29:02.673Z,-28.2
2023-01-11T23:31:04.288Z,-28.4
2023-01-11T23:35:07.199Z,-28.2
2023-01-11T23:37:08.402Z,-28.2
2023-01-11T23:39:10.325Z,-28.4
2023-01-11T23:41:11.734Z,-28.4
2023-01-11T23:43:13.603Z,-28.6
2023-01-11T23:45:14.833Z,-28.3
2023-01-11T23:47:16.676Z,-28.3
2023-01-11T23:51:19.374Z,-28.6
2023-01-11T23:53:23.016Z,-28.5
2023-01-11T23:55:21.463Z,-28.4
2023-01-11T23:57:23.128Z,-28.3
2023-01-11T23:59:24.310Z,-28.3
